createdAt,value
2023-01-02T00:00:48.186Z,73.99
2023-01-02T00:03:50.062Z,73.15
2023-01-02T00:06:51.700Z,73.24
2023-01-02T00:09:54.379Z,72.58
2023-01-02T00:12:55.871Z,73.15
2023-01-02T00:15:57.403Z,73.72
2023-01-02T00:18:58.978Z,73.77
2023-01-02T00:22:00.486Z,74.60
2023-01-02T00:25:02.254Z,74.75
2023-01-02T00:28:04.019Z,75.67
2023-01-02T00:31:07.820Z,73.65
2023-01-02T00:34:09.357Z,73.56
2023-01-02T00:37:10.900Z,74.07
2023-01-02T00:40:13.924Z,73.96
2023-01-02T00:43:16.851Z,73.39
2023-01-02T00:46:18.834Z,74.08
2023-01-02T00:49:20.399Z,74.23
2023-01-02T00:52:22.002Z,74.77
2023-01-02T00:55:23.694Z,74.49
2023-01-02T00:58:25.227Z,74.88
2023-01-02T01:01:26.794Z,74.43
2023-01-02T01:04:28.594Z,73.86
2023-01-02T01:07:30.099Z,73.49
2023-01-02T01:10:31.578Z,73.97
2023-01-02T01:13:33.147Z,74.48
2023-01-02T01:16:34.805Z,73.31
2023-01-02T01:19:36.416Z,74.07
2023-01-02T01:22:38.461Z,74.80
2023-01-02T01:25:39.995Z,74.48
2023-01-02T01:28:41.497Z,74.63
2023-01-02T01:31:43.111Z,73.86
2023-01-02T01:34:44.803Z,73.42
2023-01-02T01:37:46.330Z,73.48
2023-01-02T01:40:47.856Z,73.83
2023-01-02T01:43:52.336Z,73.68
2023-01-02T01:46:53.965Z,74.05
2023-01-02T01:50:08.031Z,74.29
2023-01-02T01:53:15.253Z,73.31
2023-01-02T01:56:17.589Z,73.74
2023-01-02T01:59:19.594Z,74.47
2023-01-02T02:02:22.886Z,73.98
2023-01-02T02:05:28.736Z,73.89
2023-01-02T02:08:36.306Z,73.48
2023-01-02T02:11:38.493Z,73.88
2023-01-02T02:14:40.060Z,73.83
2023-01-02T02:18:06.533Z,74.77
2023-01-02T02:21:35.622Z,75.23
2023-01-02T02:25:01.888Z,75.65
2023-01-02T02:28:44.982Z,75.33
2023-01-02T02:32:16.724Z,74.65
2023-01-02T02:35:24.018Z,74.29
2023-01-02T02:38:25.475Z,74.06
2023-01-02T02:41:35.566Z,72.85
2023-01-02T02:45:02.736Z,72.18
2023-01-02T02:48:53.450Z,72.11
2023-01-02T02:52:02.700Z,72.27
2023-01-02T02:55:44.680Z,71.43
2023-01-02T02:58:46.491Z,71.04
2023-01-02T03:01:48.128Z,71.77
2023-01-02T03:04:58.298Z,72.27
2023-01-02T03:08:21.998Z,72.58
2023-01-02T03:11:32.201Z,72.69
2023-01-02T03:14:43.130Z,72.33
2023-01-02T03:18:28.050Z,72.03
2023-01-02T03:21:35.998Z,72.35
2023-01-02T03:24:38.665Z,73.30
2023-01-02T03:27:45.059Z,73.08
2023-01-02T03:30:49.378Z,72.69
2023-01-02T03:33:58.963Z,73.19
2023-01-02T03:37:08.195Z,72.95
2023-01-02T03:40:19.725Z,73.84
2023-01-02T03:43:26.204Z,73.98
2023-01-02T03:46:41.915Z,74.61
2023-01-02T03:49:48.199Z,74.88
2023-01-02T03:52:49.706Z,74.44
2023-01-02T03:56:19.036Z,75.43
2023-01-02T04:00:05.726Z,74.86
2023-01-02T04:03:21.838Z,75.67
2023-01-02T04:06:31.977Z,75.21
2023-01-02T04:09:36.024Z,75.45
2023-01-02T04:12:40.322Z,75.45
2023-01-02T04:15:44.738Z,75.94
2023-01-02T04:19:01.575Z,75.78
2023-01-02T04:22:09.585Z,76.92
2023-01-02T04:25:14.543Z,77.04
2023-01-02T04:28:23.558Z,77.30
2023-01-02T04:31:50.261Z,76.91
2023-01-02T04:34:53.733Z,76.85
2023-01-02T04:37:55.269Z,77.97
2023-01-02T04:40:58.771Z,77.77
2023-01-02T04:44:00.827Z,78.92
2023-01-02T04:47:02.339Z,79.26
2023-01-02T04:50:05.732Z,79.23
2023-01-02T04:53:07.246Z,79.87
2023-01-02T04:56:08.856Z,79.64
2023-01-02T04:59:10.346Z,79.16
2023-01-02T05:02:11.890Z,80.05
2023-01-02T05:05:13.450Z,80.84
2023-01-02T05:08:16.616Z,79.92
2023-01-02T05:11:19.959Z,79.91
2023-01-02T05:14:21.543Z,79.99
2023-01-02T05:17:23.061Z,80.69
2023-01-02T05:20:24.655Z,80.37
2023-01-02T05:23:44.732Z,81.00
2023-01-02T05:26:46.345Z,80.94
2023-01-02T05:29:47.843Z,80.94
2023-01-02T05:32:49.411Z,81.22
2023-01-02T05:35:50.919Z,81.06
2023-01-02T05:38:52.970Z,80.92
2023-01-02T05:41:54.520Z,81.38
2023-01-02T05:44:56.118Z,81.67
2023-01-02T05:47:57.628Z,81.87
2023-01-02T05:51:02.650Z,82.53
2023-01-02T05:54:04.935Z,82.08
2023-01-02T05:57:06.937Z,82.64
2023-01-02T06:00:08.986Z,83.23
2023-01-02T06:03:14.369Z,83.12
2023-01-02T06:06:17.341Z,83.82
2023-01-02T06:09:18.880Z,83.95
2023-01-02T06:12:20.463Z,83.80
2023-01-02T06:15:22.119Z,83.48
2023-01-02T06:18:24.078Z,83.52
2023-01-02T06:21:25.984Z,83.91
2023-01-02T06:24:27.778Z,84.06
2023-01-02T06:27:32.113Z,83.88
2023-01-02T06:30:33.730Z,84.36
2023-01-02T06:33:35.678Z,84.96
2023-01-02T06:36:37.226Z,85.67
2023-01-02T06:39:39.340Z,85.37
2023-01-02T06:42:43.372Z,86.20
2023-01-02T06:45:44.878Z,86.51
2023-01-02T06:48:47.119Z,85.99
2023-01-02T06:51:48.614Z,86.01
2023-01-02T06:54:50.186Z,85.67
2023-01-02T06:57:51.679Z,84.95
2023-01-02T07:00:53.350Z,85.07
2023-01-02T07:03:55.828Z,85.97
2023-01-02T07:06:57.423Z,85.96
2023-01-02T07:09:58.930Z,86.46
2023-01-02T07:13:00.405Z,86.80
2023-01-02T07:16:03.937Z,86.60
2023-01-02T07:19:05.525Z,86.15
2023-01-02T07:22:07.046Z,85.52
2023-01-02T07:25:08.882Z,85.02
2023-01-02T07:28:10.374Z,85.08
2023-01-02T07:31:15.164Z,85.70
2023-01-02T07:34:16.873Z,86.81
2023-01-02T07:37:18.415Z,87.07
2023-01-02T07:40:19.919Z,87.41
2023-01-02T07:43:21.697Z,87.88
2023-01-02T07:46:24.186Z,88.11
2023-01-02T07:49:25.782Z,88.55
2023-01-02T07:52:27.272Z,88.10
2023-01-02T07:55:28.751Z,87.89
2023-01-02T07:58:31.292Z,87.15
2023-01-02T08:01:32.945Z,86.47
2023-01-02T08:04:36.302Z,86.97
2023-01-02T08:07:44.474Z,86.52
2023-01-02T08:10:46.446Z,85.55
2023-01-02T08:13:48.062Z,85.79
2023-01-02T08:16:49.633Z,85.97
2023-01-02T08:19:51.158Z,85.88
2023-01-02T08:22:53.027Z,85.45
2023-01-02T08:26:01.572Z,85.14
2023-01-02T08:29:03.327Z,84.63
2023-01-02T08:32:05.202Z,84.54
2023-01-02T08:35:07.902Z,85.08
2023-01-02T08:38:09.448Z,85.02
2023-01-02T08:41:11.240Z,85.40
2023-01-02T08:44:12.769Z,84.83
2023-01-02T08:47:14.310Z,83.71
2023-01-02T08:50:16.233Z,82.95
2023-01-02T08:53:18.254Z,82.28
2023-01-02T08:56:25.245Z,82.27
2023-01-02T08:59:26.830Z,81.71
2023-01-02T09:02:28.625Z,81.55
2023-01-02T09:05:30.963Z,81.86
2023-01-02T09:08:32.519Z,81.31
2023-01-02T09:11:36.873Z,81.98
2023-01-02T09:14:38.493Z,82.57
2023-01-02T09:17:40.159Z,81.99
2023-01-02T09:20:41.710Z,80.67
2023-01-02T09:23:43.758Z,79.79
2023-01-02T09:26:45.265Z,79.42
2023-01-02T09:29:46.848Z,79.67
2023-01-02T09:32:50.620Z,78.74
2023-01-02T09:35:55.003Z,77.84
2023-01-02T09:39:00.397Z,77.49
2023-01-02T09:42:10.792Z,76.63
2023-01-02T09:45:13.235Z,75.85
2023-01-02T09:48:19.103Z,75.42
2023-01-02T09:51:20.839Z,75.12
2023-01-02T09:54:28.280Z,73.77
2023-01-02T09:57:30.053Z,72.34
2023-01-02T10:00:35.549Z,72.19
2023-01-02T10:04:01.360Z,71.84
2023-01-02T10:07:31.842Z,71.28
2023-01-02T10:10:40.617Z,70.53
2023-01-02T10:14:17.960Z,62.90
2023-01-02T10:17:15.607Z,62.02
2023-01-02T10:20:30.431Z,58.94
2023-01-02T10:23:47.517Z,55.09
2023-01-02T10:26:53.900Z,53.66
2023-01-02T10:30:21.824Z,51.20
2023-01-02T10:33:30.270Z,50.47
2023-01-02T10:36:33.251Z,49.69
2023-01-02T10:39:34.839Z,49.60
2023-01-02T10:42:36.401Z,49.94
2023-01-02T10:45:37.998Z,50.16
2023-01-02T10:48:48.350Z,50.46
2023-01-02T10:52:03.182Z,50.69
2023-01-02T10:55:05.246Z,49.76
2023-01-02T10:58:25.118Z,49.63
2023-01-02T11:01:27.750Z,49.02
2023-01-02T11:04:30.647Z,49.68
2023-01-02T11:07:34.477Z,49.52
2023-01-02T11:10:38.560Z,48.85
2023-01-02T11:13:54.374Z,48.37
2023-01-02T11:17:04.093Z,48.89
2023-01-02T11:20:18.670Z,49.34
2023-01-02T11:23:25.917Z,48.27
2023-01-02T11:26:28.896Z,49.09
2023-01-02T11:29:37.885Z,49.08
2023-01-02T11:32:41.271Z,47.99
2023-01-02T11:35:47.373Z,48.55
2023-01-02T11:38:50.752Z,48.33
2023-01-02T11:42:22.304Z,48.12
2023-01-02T11:45:25.517Z,48.22
2023-01-02T11:48:28.667Z,47.78
2023-01-02T11:51:34.588Z,47.30
2023-01-02T11:54:42.053Z,47.87
2023-01-02T11:57:54.587Z,48.31
2023-01-02T12:01:19.263Z,48.48
2023-01-02T12:04:22.229Z,49.15
2023-01-02T12:07:42.603Z,49.39
2023-01-02T12:11:13.409Z,49.77
2023-01-02T12:14:22.153Z,49.38
2023-01-02T12:17:31.959Z,48.93
2023-01-02T12:21:14.670Z,48.35
2023-01-02T12:24:31.945Z,48.25
2023-01-02T12:27:46.291Z,49.20
2023-01-02T12:31:10.103Z,49.43
2023-01-02T12:34:32.811Z,50.02
2023-01-02T12:37:49.011Z,49.91
2023-01-02T12:41:06.367Z,49.43
2023-01-02T12:44:21.958Z,50.06
2023-01-02T12:47:42.298Z,50.07
2023-01-02T12:50:57.402Z,50.31
2023-01-02T12:54:21.068Z,50.21
2023-01-02T12:57:33.950Z,50.09
2023-01-02T13:00:54.237Z,50.60
2023-01-02T13:04:16.038Z,50.62
2023-01-02T13:07:48.561Z,51.19
2023-01-02T13:10:50.582Z,51.35
2023-01-02T13:13:53.681Z,51.34
2023-01-02T13:17:15.067Z,51.54
2023-01-02T13:20:19.537Z,52.02
2023-01-02T13:23:40.356Z,52.56
2023-01-02T13:26:42.535Z,52.68
2023-01-02T13:29:45.909Z,52.34
2023-01-02T13:32:47.818Z,52.26
2023-01-02T13:35:49.899Z,52.33
2023-01-02T13:38:54.827Z,52.44
2023-01-02T13:42:19.068Z,52.53
2023-01-02T13:45:29.354Z,53.37
2023-01-02T13:48:45.377Z,53.50
2023-01-02T13:51:48.008Z,54.25
2023-01-02T13:55:31.112Z,55.82
2023-01-02T13:58:57.520Z,57.89
2023-01-02T14:02:00.221Z,58.44
2023-01-02T14:05:40.593Z,59.41
2023-01-02T14:09:04.671Z,59.96
2023-01-02T14:12:12.629Z,62.40
2023-01-02T14:15:20.478Z,63.74
2023-01-02T14:18:46.667Z,64.63
2023-01-02T14:21:54.687Z,65.90
2023-01-02T14:25:03.830Z,66.53
2023-01-02T14:28:07.135Z,67.13
2023-01-02T14:31:32.758Z,68.23
2023-01-02T14:34:42.121Z,70.60
2023-01-02T14:37:50.476Z,73.58
2023-01-02T14:40:52.742Z,77.88
2023-01-02T14:43:56.288Z,82.19
2023-01-02T14:46:58.583Z,84.18
2023-01-02T14:50:02.931Z,83.74
2023-01-02T14:53:26.742Z,84.71
2023-01-02T14:56:33.962Z,85.79
2023-01-02T14:59:42.321Z,86.83
2023-01-02T15:02:47.770Z,86.81
2023-01-02T15:05:57.584Z,88.91
2023-01-02T15:09:06.259Z,90.22
2023-01-02T15:12:42.571Z,90.86
2023-01-02T15:15:48.896Z,94.20
2023-01-02T15:18:57.399Z,99.04
2023-01-02T15:21:59.119Z,100.00
2023-01-02T15:25:01.005Z,100.00
2023-01-02T15:28:02.990Z,100.00
2023-01-02T15:31:13.714Z,100.00
2023-01-02T15:34:54.719Z,100.00
2023-01-02T15:37:56.973Z,100.00
2023-01-02T15:40:58.899Z,100.00
2023-01-02T15:44:18.828Z,100.00
2023-01-02T15:47:27.599Z,100.00
2023-01-02T15:50:32.106Z,100.00
2023-01-02T15:53:42.847Z,100.00
2023-01-02T15:56:44.678Z,100.00
2023-01-02T15:59:47.384Z,100.00
2023-01-02T16:02:48.980Z,100.00
2023-01-02T16:05:56.461Z,100.00
2023-01-02T16:09:00.117Z,100.00
2023-01-02T16:12:03.362Z,100.00
2023-01-02T16:15:44.982Z,100.00
2023-01-02T16:18:59.604Z,100.00
2023-01-02T16:22:17.736Z,100.00
2023-01-02T16:25:36.786Z,100.00
2023-01-02T16:28:42.426Z,100.00
2023-01-02T16:31:58.712Z,100.00
2023-01-02T16:35:04.529Z,100.00
2023-01-02T16:38:26.871Z,98.20
2023-01-02T16:41:37.029Z,98.52
2023-01-02T16:44:38.673Z,96.73
2023-01-02T16:47:43.232Z,95.38
2023-01-02T16:50:46.041Z,93.12
2023-01-02T16:53:47.550Z,91.44
2023-01-02T16:56:50.021Z,91.46
2023-01-02T16:59:51.567Z,91.47
2023-01-02T17:02:53.418Z,91.79
2023-01-02T17:06:01.249Z,93.18
2023-01-02T17:09:04.196Z,92.66
2023-01-02T17:12:06.019Z,92.94
2023-01-02T17:15:08.837Z,94.18
2023-01-02T17:18:10.761Z,97.92
2023-01-02T17:21:12.875Z,100.00
2023-01-02T17:24:18.155Z,100.00
2023-01-02T17:27:20.765Z,100.00
2023-01-02T17:30:22.861Z,100.00
2023-01-02T17:33:24.468Z,100.00
2023-01-02T17:36:26.088Z,100.00
2023-01-02T17:39:27.645Z,100.00
2023-01-02T17:42:36.514Z,100.00
2023-01-02T17:53:47.981Z,100.00
2023-01-02T17:57:00.980Z,100.00
2023-01-02T18:00:09.149Z,100.00
2023-01-02T18:03:14.368Z,100.00
2023-01-02T18:06:28.289Z,100.00
2023-01-02T18:09:29.898Z,100.00
2023-01-02T18:12:32.135Z,100.00
2023-01-02T18:15:33.714Z,100.00
2023-01-02T18:18:36.813Z,100.00
2023-01-02T18:21:38.894Z,100.00
2023-01-02T18:24:41.848Z,100.00
2023-01-02T18:27:43.402Z,100.00
2023-01-02T18:30:45.100Z,100.00
2023-01-02T18:33:47.247Z,100.00
2023-01-02T18:36:49.959Z,100.00
2023-01-02T18:39:52.382Z,100.00
2023-01-02T18:43:01.390Z,100.00
2023-01-02T18:46:23.793Z,100.00
2023-01-02T18:49:29.560Z,100.00
2023-01-02T18:52:33.558Z,100.00
2023-01-02T18:55:40.248Z,100.00
2023-01-02T18:58:51.609Z,100.00
2023-01-02T19:02:04.777Z,100.00
2023-01-02T19:05:35.777Z,100.00
2023-01-02T19:08:37.591Z,100.00
2023-01-02T19:11:57.831Z,100.00
2023-01-02T19:15:00.916Z,100.00
2023-01-02T19:18:19.769Z,100.00
2023-01-02T19:21:30.161Z,100.00
2023-01-02T19:24:36.172Z,100.00
2023-01-02T19:27:39.247Z,100.00
2023-01-02T19:30:45.596Z,100.00
2023-01-02T19:33:56.282Z,100.00
2023-01-02T19:37:11.601Z,100.00
2023-01-02T19:40:19.960Z,100.00
2023-01-02T19:43:21.755Z,100.00
2023-01-02T19:46:23.405Z,100.00
2023-01-02T19:49:24.933Z,100.00
2023-01-02T19:52:28.297Z,100.00
2023-01-02T19:55:30.174Z,100.00
2023-01-02T19:58:32.114Z,100.00
2023-01-02T20:01:33.819Z,100.00
2023-01-02T20:04:35.420Z,100.00
2023-01-02T20:07:36.982Z,100.00
2023-01-02T20:10:38.473Z,100.00
2023-01-02T20:13:40.026Z,100.00
2023-01-02T20:16:41.704Z,100.00
2023-01-02T20:19:43.777Z,100.00
2023-01-02T20:22:46.125Z,100.00
2023-01-02T20:25:47.936Z,100.00
2023-01-02T20:28:49.443Z,100.00
2023-01-02T20:31:51.851Z,100.00
2023-01-02T20:34:53.993Z,100.00
2023-01-02T20:37:55.583Z,100.00
2023-01-02T20:40:57.680Z,100.00
2023-01-02T20:44:00.840Z,100.00
2023-01-02T20:47:02.445Z,100.00
2023-01-02T20:50:05.057Z,100.00
2023-01-02T20:53:07.760Z,100.00
2023-01-02T20:56:09.706Z,100.00
2023-01-02T20:59:11.269Z,100.00
2023-01-02T21:02:12.967Z,100.00
2023-01-02T21:05:15.383Z,100.00
2023-01-02T21:08:17.035Z,100.00
2023-01-02T21:11:18.591Z,100.00
2023-01-02T21:14:20.120Z,100.00
2023-01-02T21:17:21.714Z,100.00
2023-01-02T21:20:23.231Z,100.00
2023-01-02T21:23:26.515Z,100.00
2023-01-02T21:26:28.176Z,100.00
2023-01-02T21:29:29.653Z,100.00
2023-01-02T21:32:31.166Z,100.00
2023-01-02T21:35:33.704Z,100.00
2023-01-02T21:38:36.194Z,100.00
2023-01-02T21:41:56.102Z,100.00
2023-01-02T21:44:57.633Z,100.00
2023-01-02T21:47:59.346Z,100.00
2023-01-02T21:51:01.196Z,100.00
2023-01-02T21:54:03.055Z,100.00
2023-01-02T21:57:05.211Z,100.00
2023-01-02T22:00:07.704Z,100.00
2023-01-02T22:03:10.600Z,100.00
2023-01-02T22:06:12.238Z,100.00
2023-01-02T22:09:13.940Z,100.00
2023-01-02T22:12:15.508Z,100.00
2023-01-02T22:15:17.546Z,100.00
2023-01-02T22:18:19.152Z,100.00
2023-01-02T22:21:20.643Z,100.00
2023-01-02T22:24:25.589Z,100.00
2023-01-02T22:27:27.550Z,100.00
2023-01-02T22:30:34.447Z,100.00
2023-01-02T22:33:37.780Z,100.00
2023-01-02T22:36:39.550Z,100.00
2023-01-02T22:39:41.861Z,100.00
2023-01-02T22:43:04.489Z,100.00
2023-01-02T22:46:23.580Z,100.00
2023-01-02T22:49:27.722Z,100.00
2023-01-02T22:52:30.018Z,100.00
2023-01-02T22:55:31.555Z,100.00
2023-01-02T22:58:33.128Z,100.00
2023-01-02T23:01:38.126Z,100.00
2023-01-02T23:04:39.974Z,100.00
2023-01-02T23:07:41.603Z,100.00
2023-01-02T23:10:43.182Z,100.00
2023-01-02T23:13:45.208Z,100.00
2023-01-02T23:17:05.343Z,100.00
2023-01-02T23:20:07.498Z,100.00
2023-01-02T23:23:09.142Z,100.00
2023-01-02T23:26:13.525Z,100.00
2023-01-02T23:29:15.859Z,100.00
2023-01-02T23:32:19.767Z,100.00
2023-01-02T23:35:21.465Z,100.00
2023-01-02T23:38:23.027Z,100.00
2023-01-02T23:41:24.604Z,100.00
2023-01-02T23:44:26.406Z,100.00
2023-01-02T23:47:28.102Z,100.00
2023-01-02T23:50:30.544Z,100.00
2023-01-02T23:53:32.384Z,100.00
2023-01-02T23:56:36.391Z,100.00
2023-01-02T23:59:37.879Z,100.00
